createdAt,value
2018-05-11T00:01:07.083Z,102000.95
2018-05-11T00:03:36.255Z,101999.70
2018-05-11T00:06:05.365Z,101997.02
2018-05-11T00:08:34.732Z,101997.67
2018-05-11T00:11:03.993Z,102003.91
2018-05-11T00:13:32.950Z,102007.09
2018-05-11T00:16:02.085Z,102006.17
2018-05-11T00:18:31.207Z,102005.73
2018-05-11T00:21:00.247Z,102007.86
2018-05-11T00:23:29.384Z,102011.23
2018-05-11T00:25:58.711Z,102005.87
2018-05-11T00:28:27.910Z,102005.39
2018-05-11T00:30:56.815Z,102003.95
2018-05-11T00:33:25.822Z,102001.62
2018-05-11T00:35:54.934Z,101995.34
2018-05-11T00:38:24.138Z,101993.98
2018-05-11T00:40:53.252Z,102002.17
2018-05-11T00:43:22.375Z,102005.48
2018-05-11T00:45:51.675Z,101999.58
2018-05-11T00:48:20.874Z,102007.08
2018-05-11T00:50:49.991Z,102007.00
2018-05-11T00:53:19.132Z,102013.32
2018-05-11T00:55:50.665Z,102012.07
2018-05-11T00:58:19.819Z,102017.75
2018-05-11T01:00:48.938Z,102006.78
2018-05-11T01:03:18.051Z,102011.28
2018-05-11T01:05:47.193Z,102011.25
2018-05-11T01:08:16.322Z,102014.45
2018-05-11T01:10:45.548Z,102013.02
2018-05-11T01:13:14.683Z,102010.67
2018-05-11T01:15:43.804Z,102012.02
2018-05-11T01:18:12.942Z,102008.33
2018-05-11T01:20:42.183Z,102007.00
2018-05-11T01:23:11.303Z,102011.11
2018-05-11T01:25:41.070Z,102011.93
2018-05-11T01:28:10.208Z,102016.83
2018-05-11T01:30:39.488Z,102010.20
2018-05-11T01:33:08.606Z,102008.81
2018-05-11T01:35:37.769Z,102012.41
2018-05-11T01:38:07.075Z,102015.05
2018-05-11T01:40:36.186Z,102008.77
2018-05-11T01:43:05.331Z,102004.78
2018-05-11T01:45:34.438Z,101995.76
2018-05-11T01:48:03.563Z,101995.38
2018-05-11T01:50:32.697Z,101995.90
2018-05-11T01:53:01.823Z,101994.50
2018-05-11T01:55:30.946Z,101995.90
2018-05-11T01:58:00.083Z,101995.03
2018-05-11T02:00:29.227Z,102002.17
2018-05-11T02:02:58.350Z,102004.96
2018-05-11T02:05:27.779Z,102009.03
2018-05-11T02:08:02.295Z,102013.63
2018-05-11T02:10:31.436Z,102010.38
2018-05-11T02:13:00.559Z,102009.51
2018-05-11T02:15:29.675Z,102006.44
2018-05-11T02:17:59.039Z,102012.24
2018-05-11T02:20:28.171Z,102009.59
2018-05-11T02:22:57.334Z,102000.23
2018-05-11T02:25:26.488Z,102009.59
2018-05-11T02:27:55.641Z,102001.10
2018-05-11T02:30:24.759Z,102001.19
2018-05-11T02:32:54.190Z,101999.80
2018-05-11T02:35:23.529Z,102000.23
2018-05-11T02:37:52.659Z,102002.66
2018-05-11T02:40:22.138Z,101998.63
2018-05-11T02:42:51.267Z,101999.97
2018-05-11T02:45:20.379Z,101993.21
2018-05-11T02:47:55.462Z,101995.50
2018-05-11T02:50:25.031Z,101991.66
2018-05-11T02:52:54.011Z,101997.50
2018-05-11T02:55:23.563Z,101988.83
2018-05-11T02:57:52.767Z,101990.13
2018-05-11T03:00:21.903Z,101984.50
2018-05-11T03:02:56.463Z,101993.78
2018-05-11T03:05:31.140Z,101989.87
2018-05-11T03:08:00.283Z,101986.54
2018-05-11T03:10:29.521Z,101984.75
2018-05-11T03:12:58.737Z,101975.44
2018-05-11T03:15:27.801Z,101975.83
2018-05-11T03:17:56.914Z,101975.39
2018-05-11T03:20:26.642Z,101971.80
2018-05-11T03:22:56.110Z,101971.41
2018-05-11T03:25:26.019Z,101963.52
2018-05-11T03:27:55.186Z,101962.05
2018-05-11T03:30:24.390Z,101964.17
2018-05-11T03:32:53.508Z,101966.03
2018-05-11T03:35:22.624Z,101963.88
2018-05-11T03:37:52.123Z,101962.56
2018-05-11T03:40:21.252Z,101963.34
2018-05-11T03:42:50.370Z,101960.79
2018-05-11T03:45:19.502Z,101958.48
2018-05-11T03:47:48.617Z,101954.02
2018-05-11T03:50:17.615Z,101962.34
2018-05-11T03:52:47.094Z,101960.61
2018-05-11T03:55:16.210Z,101959.30
2018-05-11T03:57:45.207Z,101965.95
2018-05-11T04:00:14.684Z,101967.29
2018-05-11T04:03:00.842Z,101966.77
2018-05-11T04:05:41.646Z,101957.41
2018-05-11T04:08:22.100Z,101958.31
2018-05-11T04:10:51.627Z,101953.50
2018-05-11T04:13:20.752Z,101953.59
2018-05-11T04:15:49.875Z,101946.87
2018-05-11T04:18:19.019Z,101952.69
2018-05-11T04:20:48.205Z,101951.77
2018-05-11T04:23:17.466Z,101947.78
2018-05-11T04:25:46.370Z,101944.53
2018-05-11T04:28:15.490Z,101947.74
2018-05-11T04:30:44.609Z,101947.39
2018-05-11T04:33:14.091Z,101955.33
2018-05-11T04:35:43.212Z,101952.24
2018-05-11T04:38:12.369Z,101956.28
2018-05-11T04:40:46.895Z,101959.83
2018-05-11T04:43:16.010Z,101954.50
2018-05-11T04:45:45.123Z,101954.16
2018-05-11T04:48:14.697Z,101959.14
2018-05-11T04:50:43.834Z,101959.67
2018-05-11T04:53:12.977Z,101959.14
2018-05-11T04:55:42.121Z,101953.25
2018-05-11T04:58:11.236Z,101954.23
2018-05-11T05:00:40.366Z,101953.34
2018-05-11T05:03:09.522Z,101959.67
2018-05-11T05:05:38.650Z,101956.98
2018-05-11T05:08:07.770Z,101956.16
2018-05-11T05:10:37.043Z,101958.89
2018-05-11T05:13:06.236Z,101959.37
2018-05-11T05:15:35.353Z,101958.46
2018-05-11T05:18:04.563Z,101960.15
2018-05-11T05:20:33.696Z,101953.44
2018-05-11T05:23:02.811Z,101951.52
2018-05-11T05:25:32.229Z,101960.75
2018-05-11T05:28:01.351Z,101955.82
2018-05-11T05:30:30.534Z,101956.72
2018-05-11T05:32:59.611Z,101958.50
2018-05-11T05:35:28.934Z,101951.92
2018-05-11T05:37:58.130Z,101956.81
2018-05-11T05:40:27.442Z,101957.28
2018-05-11T05:42:56.336Z,101964.48
2018-05-11T05:45:25.838Z,101959.33
2018-05-11T05:47:55.338Z,101958.98
2018-05-11T05:50:24.470Z,101957.98
2018-05-11T05:52:53.597Z,101970.59
2018-05-11T05:55:23.049Z,101966.87
2018-05-11T05:57:52.178Z,101968.73
2018-05-11T06:00:21.303Z,101961.06
2018-05-11T06:02:50.438Z,101959.32
2018-05-11T06:05:19.551Z,101968.98
2018-05-11T06:07:48.683Z,101967.22
2018-05-11T06:10:18.017Z,101965.87
2018-05-11T06:12:47.144Z,101956.03
2018-05-11T06:15:16.841Z,101960.58
2018-05-11T06:17:45.916Z,101962.75
2018-05-11T06:20:15.191Z,101966.68
2018-05-11T06:22:44.307Z,101965.34
2018-05-11T06:25:13.463Z,101964.91
2018-05-11T06:27:42.626Z,101968.25
2018-05-11T06:30:11.767Z,101969.55
2018-05-11T06:32:41.339Z,101972.27
2018-05-11T06:35:10.460Z,101969.93
2018-05-11T06:37:39.600Z,101971.80
2018-05-11T06:40:08.743Z,101975.30
2018-05-11T06:42:37.867Z,101970.33
2018-05-11T06:45:06.989Z,101971.31
2018-05-11T06:47:36.118Z,101967.67
2018-05-11T06:50:05.078Z,101968.16
2018-05-11T06:52:34.411Z,101970.36
2018-05-11T06:55:03.551Z,101974.34
2018-05-11T06:57:32.679Z,101976.61
2018-05-11T07:00:01.800Z,101982.84
2018-05-11T07:02:31.077Z,101978.91
2018-05-11T07:05:00.201Z,101977.95
2018-05-11T07:07:29.326Z,101974.88
2018-05-11T07:09:58.495Z,101977.47
2018-05-11T07:12:27.634Z,101976.09
2018-05-11T07:14:56.848Z,101971.66
2018-05-11T07:17:27.022Z,101971.31
2018-05-11T07:19:56.138Z,101963.78
2018-05-11T07:22:26.455Z,101967.85
2018-05-11T07:24:55.646Z,101968.29
2018-05-11T07:27:25.403Z,101962.34
2018-05-11T07:29:54.562Z,101965.12
2018-05-11T07:32:23.727Z,101962.00
2018-05-11T07:34:52.915Z,101962.87
2018-05-11T07:37:22.221Z,101956.14
2018-05-11T07:39:51.390Z,101964.47
2018-05-11T07:42:20.543Z,101955.49
2018-05-11T07:44:49.670Z,101954.58
2018-05-11T07:47:18.786Z,101953.72
2018-05-11T07:49:47.933Z,101951.89
2018-05-11T07:52:17.054Z,101951.08
2018-05-11T07:54:46.215Z,101951.80
2018-05-11T07:57:15.386Z,101954.97
2018-05-11T07:59:44.517Z,101954.97
2018-05-11T08:02:19.145Z,101944.13
2018-05-11T08:04:48.302Z,101954.41
2018-05-11T08:07:17.572Z,101946.86
2018-05-11T08:09:46.747Z,101946.26
2018-05-11T08:12:15.869Z,101942.13
2018-05-11T08:14:45.052Z,101945.30
2018-05-11T08:17:14.224Z,101939.01
2018-05-11T08:19:43.359Z,101926.05
2018-05-11T08:22:12.495Z,101930.46
2018-05-11T08:24:41.671Z,101925.95
2018-05-11T08:27:10.797Z,101931.23
2018-05-11T08:29:40.092Z,101928.55
2018-05-11T08:32:09.251Z,101926.16
2018-05-11T08:34:38.389Z,101922.55
2018-05-11T08:37:08.124Z,101921.64
2018-05-11T08:39:37.276Z,101919.30
2018-05-11T08:42:06.397Z,101918.91
2018-05-11T08:44:35.639Z,101917.04
2018-05-11T08:47:04.713Z,101912.97
2018-05-11T08:49:33.889Z,101904.47
2018-05-11T08:52:03.021Z,101907.11
2018-05-11T08:54:32.232Z,101901.25
2018-05-11T08:57:01.403Z,101900.77
2018-05-11T08:59:30.334Z,101905.63
2018-05-11T09:01:59.539Z,101901.16
2018-05-11T09:04:28.690Z,101885.85
2018-05-11T09:06:57.831Z,101885.36
2018-05-11T09:09:28.247Z,101883.50
2018-05-11T09:11:57.385Z,101879.02
2018-05-11T09:14:27.298Z,101870.97
2018-05-11T09:16:56.954Z,101870.00
2018-05-11T09:19:26.352Z,101870.81
2018-05-11T09:21:56.316Z,101867.75
2018-05-11T09:24:26.205Z,101862.31
2018-05-11T09:26:55.454Z,101858.30
2018-05-11T09:29:24.623Z,101858.33
2018-05-11T09:31:54.160Z,101863.62
2018-05-11T09:34:23.431Z,101860.49
2018-05-11T09:36:52.542Z,101852.86
2018-05-11T09:39:22.191Z,101850.55
2018-05-11T09:41:51.880Z,101844.27
2018-05-11T09:44:21.063Z,101841.58
2018-05-11T09:46:50.194Z,101843.30
2018-05-11T09:49:19.399Z,101838.84
2018-05-11T09:51:48.913Z,101841.14
2018-05-11T09:54:17.985Z,101832.21
2018-05-11T09:56:47.123Z,101829.38
2018-05-11T09:59:21.736Z,101832.06
2018-05-11T10:01:54.699Z,101826.25
2018-05-11T10:04:24.391Z,101823.91
2018-05-11T10:06:53.524Z,101823.00
2018-05-11T10:09:22.652Z,101814.01
2018-05-11T10:11:51.833Z,101813.48
2018-05-11T10:14:20.814Z,101819.30
2018-05-11T10:16:49.807Z,101817.03
2018-05-11T10:19:18.978Z,101816.50
2018-05-11T10:21:48.136Z,101818.28
2018-05-11T10:24:17.263Z,101810.12
2018-05-11T10:26:51.802Z,101808.72
2018-05-11T10:29:26.511Z,101807.33
2018-05-11T10:31:55.825Z,101803.23
2018-05-11T10:34:24.818Z,101799.20
2018-05-11T10:36:54.659Z,101796.03
2018-05-11T10:39:23.813Z,101795.45
2018-05-11T10:41:53.579Z,101790.06
2018-05-11T10:44:22.726Z,101793.63
2018-05-11T10:46:51.887Z,101793.52
2018-05-11T10:49:21.034Z,101793.95
2018-05-11T10:51:50.192Z,101789.92
2018-05-11T10:54:19.352Z,101783.57
2018-05-11T10:56:48.345Z,101783.91
2018-05-11T10:59:17.959Z,101780.31
2018-05-11T11:01:47.419Z,101769.55
2018-05-11T11:04:16.547Z,101776.27
2018-05-11T11:06:45.684Z,101766.42
2018-05-11T11:09:14.843Z,101764.05
2018-05-11T11:11:44.006Z,101765.79
2018-05-11T11:14:13.553Z,101766.66
2018-05-11T11:16:42.703Z,101762.50
2018-05-11T11:19:11.854Z,101764.75
2018-05-11T11:21:41.016Z,101769.23
2018-05-11T11:24:10.187Z,101759.37
2018-05-11T11:26:39.313Z,101756.53
2018-05-11T11:29:08.449Z,101761.86
2018-05-11T11:31:37.620Z,101746.16
2018-05-11T11:34:06.751Z,101743.03
2018-05-11T11:36:35.895Z,101737.60
2018-05-11T11:39:04.595Z,101736.67
2018-05-11T11:41:33.751Z,101730.43
2018-05-11T11:44:02.660Z,101736.14
2018-05-11T11:46:37.257Z,101728.45
2018-05-11T11:49:11.929Z,101723.06
2018-05-11T11:51:41.103Z,101722.14
2018-05-11T11:54:10.223Z,101721.66
2018-05-11T11:56:39.355Z,101718.54
2018-05-11T11:59:08.495Z,101714.89
2018-05-11T12:01:37.733Z,101703.63
2018-05-11T12:04:07.091Z,101704.98
2018-05-11T12:06:36.248Z,101691.05
2018-05-11T12:09:04.942Z,101689.60
2018-05-11T12:11:34.359Z,101682.42
2018-05-11T12:14:04.281Z,101683.68
2018-05-11T12:16:33.407Z,101679.62
2018-05-11T12:19:03.289Z,101675.50
2018-05-11T12:21:32.448Z,101676.67
2018-05-11T12:24:01.571Z,101670.39
2018-05-11T12:26:30.739Z,101675.76
2018-05-11T12:28:59.895Z,101667.70
2018-05-11T12:31:29.015Z,101675.65
2018-05-11T12:33:58.172Z,101668.44
2018-05-11T12:36:27.473Z,101666.66
2018-05-11T12:38:56.673Z,101676.52
2018-05-11T12:41:26.255Z,101667.36
2018-05-11T12:43:55.416Z,101664.52
2018-05-11T12:46:24.628Z,101659.51
2018-05-11T12:48:55.794Z,101666.55
2018-05-11T12:51:25.026Z,101662.84
2018-05-11T12:53:54.584Z,101659.17
2018-05-11T12:56:23.758Z,101656.00
2018-05-11T12:58:52.883Z,101652.23
2018-05-11T13:01:22.037Z,101647.66
2018-05-11T13:03:51.209Z,101653.30
2018-05-11T13:06:20.335Z,101643.23
2018-05-11T13:08:49.598Z,101654.44
2018-05-11T13:11:18.735Z,101644.08
2018-05-11T13:13:47.905Z,101634.13
2018-05-11T13:16:17.044Z,101633.99
2018-05-11T13:18:46.648Z,101631.63
2018-05-11T13:21:15.827Z,101634.70
2018-05-11T13:23:50.592Z,101629.19
2018-05-11T13:26:19.672Z,101630.47
2018-05-11T13:28:48.817Z,101636.24
2018-05-11T13:31:18.335Z,101626.66
2018-05-11T13:33:47.463Z,101618.55
2018-05-11T13:36:16.655Z,101622.02
2018-05-11T13:38:45.969Z,101610.72
2018-05-11T13:41:14.953Z,101604.36
2018-05-11T13:43:44.083Z,101606.98
2018-05-11T13:46:14.896Z,101610.01
2018-05-11T13:48:44.038Z,101611.41
2018-05-11T13:51:13.184Z,101610.38
2018-05-11T13:53:42.453Z,101607.94
2018-05-11T13:56:11.622Z,101603.45
2018-05-11T13:58:40.947Z,101602.98
2018-05-11T14:01:10.099Z,101602.92
2018-05-11T14:03:39.108Z,101610.89
2018-05-11T14:06:08.388Z,101600.47
2018-05-11T14:08:37.561Z,101593.64
2018-05-11T14:11:06.447Z,101596.76
2018-05-11T14:13:35.575Z,101591.35
2018-05-11T14:16:05.519Z,101592.17
2018-05-11T14:18:34.707Z,101592.48
2018-05-11T14:21:03.844Z,101587.52
2018-05-11T14:23:32.991Z,101582.55
2018-05-11T14:26:02.168Z,101581.53
2018-05-11T14:28:31.054Z,101583.34
2018-05-11T14:31:00.014Z,101577.91
2018-05-11T14:33:29.166Z,101580.50
2018-05-11T14:35:58.416Z,101566.59
2018-05-11T14:38:28.500Z,101573.73
2018-05-11T14:40:57.730Z,101562.96
2018-05-11T14:43:26.917Z,101559.28
2018-05-11T14:45:56.074Z,101555.23
2018-05-11T14:48:27.343Z,101550.28
2018-05-11T14:50:56.855Z,101547.10
2018-05-11T14:53:25.991Z,101543.92
2018-05-11T14:55:55.145Z,101551.14
2018-05-11T14:58:24.310Z,101544.28
2018-05-11T15:00:53.480Z,101546.98
2018-05-11T15:03:22.617Z,101535.33
2018-05-11T15:05:52.121Z,101537.56
2018-05-11T15:08:21.303Z,101537.56
2018-05-11T15:10:50.461Z,101531.19
2018-05-11T15:13:19.841Z,101531.29
2018-05-11T15:15:48.972Z,101526.71
2018-05-11T15:18:18.104Z,101516.36
2018-05-11T15:20:47.260Z,101517.81
2018-05-11T15:23:16.383Z,101508.23
2018-05-11T15:25:45.575Z,101508.28
2018-05-11T15:28:14.741Z,101507.41
2018-05-11T15:30:43.915Z,101509.13
2018-05-11T15:33:13.051Z,101498.77
2018-05-11T15:35:42.230Z,101500.67
2018-05-11T15:38:11.352Z,101492.59
2018-05-11T15:40:40.487Z,101495.77
2018-05-11T15:43:09.991Z,101495.54
2018-05-11T15:45:39.021Z,101496.39
2018-05-11T15:48:08.158Z,101490.02
2018-05-11T15:50:37.318Z,101488.50
2018-05-11T15:53:06.469Z,101491.25
2018-05-11T15:55:35.601Z,101491.61
2018-05-11T15:58:04.865Z,101489.72
2018-05-11T16:00:34.008Z,101485.17
2018-05-11T16:03:03.164Z,101485.66
2018-05-11T16:05:32.079Z,101486.88
2018-05-11T16:08:01.044Z,101481.92
2018-05-11T16:10:33.205Z,101481.87
2018-05-11T16:13:02.369Z,101474.95
2018-05-11T16:15:31.510Z,101472.73
2018-05-11T16:18:00.642Z,101467.83
2018-05-11T16:20:29.900Z,101456.48
2018-05-11T16:22:59.052Z,101460.48
2018-05-11T16:25:28.203Z,101455.57
2018-05-11T16:27:57.383Z,101451.48
2018-05-11T16:30:27.095Z,101448.78
2018-05-11T16:32:56.253Z,101448.78
2018-05-11T16:35:26.156Z,101443.33
2018-05-11T16:37:55.208Z,101445.52
2018-05-11T16:40:24.413Z,101444.13
2018-05-11T16:42:53.812Z,101441.84
2018-05-11T16:45:22.997Z,101446.26
2018-05-11T16:47:52.036Z,101440.44
2018-05-11T16:50:21.231Z,101445.75
2018-05-11T16:52:50.396Z,101443.94
2018-05-11T16:55:19.528Z,101440.44
2018-05-11T16:57:48.699Z,101437.69
2018-05-11T17:00:17.876Z,101438.59
2018-05-11T17:02:46.999Z,101440.02
2018-05-11T17:05:16.143Z,101438.22
2018-05-11T17:07:45.195Z,101436.59
2018-05-11T17:10:14.176Z,101433.87
2018-05-11T17:12:43.319Z,101431.69
2018-05-11T17:15:12.451Z,101428.12
2018-05-11T17:17:41.584Z,101425.86
2018-05-11T17:20:11.031Z,101431.20
2018-05-11T17:22:40.280Z,101433.89
2018-05-11T17:25:09.495Z,101425.86
2018-05-11T17:27:38.638Z,101422.81
2018-05-11T17:30:07.576Z,101427.39
2018-05-11T17:32:36.688Z,101425.00
2018-05-11T17:35:05.836Z,101422.30
2018-05-11T17:37:34.957Z,101424.14
2018-05-11T17:40:04.092Z,101416.97
2018-05-11T17:42:33.117Z,101417.66
2018-05-11T17:45:02.306Z,101421.21
2018-05-11T17:47:31.446Z,101414.98
2018-05-11T17:50:06.143Z,101415.82
2018-05-11T17:52:35.274Z,101419.51
2018-05-11T17:55:04.398Z,101415.95
2018-05-11T17:57:33.548Z,101416.08
2018-05-11T18:00:08.097Z,101416.92
2018-05-11T18:02:37.570Z,101420.06
2018-05-11T18:05:06.695Z,101422.01
2018-05-11T18:07:35.824Z,101419.33
2018-05-11T18:10:05.415Z,101411.78
2018-05-11T18:12:34.687Z,101413.64
2018-05-11T18:15:03.795Z,101411.38
2018-05-11T18:17:32.935Z,101412.85
2018-05-11T18:20:02.196Z,101413.77
2018-05-11T18:22:37.068Z,101417.81
2018-05-11T18:25:06.195Z,101417.81
2018-05-11T18:27:35.332Z,101417.98
2018-05-11T18:30:04.466Z,101418.30
2018-05-11T18:32:33.593Z,101417.00
2018-05-11T18:35:02.718Z,101421.17
2018-05-11T18:37:31.866Z,101417.43
2018-05-11T18:40:00.987Z,101419.34
2018-05-11T18:42:35.553Z,101419.75
2018-05-11T18:45:23.452Z,101418.95
2018-05-11T18:48:13.987Z,101414.00
2018-05-11T18:51:11.452Z,101424.67
2018-05-11T18:54:02.588Z,101425.89
2018-05-11T18:56:46.074Z,101423.37
2018-05-11T19:07:54.785Z,101420.00
2018-05-11T19:13:23.532Z,101421.42
2018-05-11T19:16:20.806Z,101424.41
2018-05-11T19:19:10.316Z,101424.85
2018-05-11T19:22:00.189Z,101422.62
2018-05-11T19:27:24.493Z,101426.25
2018-05-11T19:35:58.266Z,101438.87
2018-05-11T19:38:42.979Z,101446.90
2018-05-11T19:41:26.602Z,101448.66
2018-05-11T19:47:13.575Z,101449.11
2018-05-11T19:50:00.003Z,101453.81
2018-05-11T19:52:46.222Z,101449.72
2018-05-11T19:55:32.924Z,101456.45
2018-05-11T20:01:10.324Z,101464.47
2018-05-11T20:03:53.561Z,101461.70
2018-05-11T20:06:28.909Z,101462.71
2018-05-11T20:09:13.196Z,101459.59
2018-05-11T20:11:52.869Z,101459.52
2018-05-11T20:14:35.050Z,101464.91
2018-05-11T20:17:24.256Z,101462.20
2018-05-11T20:20:02.277Z,101466.69
2018-05-11T20:22:47.405Z,101467.16
2018-05-11T20:25:33.870Z,101467.16
2018-05-11T20:28:27.571Z,101468.95
2018-05-11T20:31:02.440Z,101465.82
2018-05-11T20:33:45.224Z,101470.34
2018-05-11T20:36:20.621Z,101464.17
2018-05-11T20:44:31.734Z,101464.36
2018-05-11T20:47:14.043Z,101466.42
2018-05-11T20:50:12.969Z,101461.03
2018-05-11T21:04:30.015Z,101458.36
2018-05-11T21:07:11.655Z,101457.63
2018-05-11T21:09:54.337Z,101453.77
2018-05-11T21:15:34.308Z,101452.48
2018-05-11T21:18:24.105Z,101455.16
2018-05-11T21:21:13.448Z,101453.58
2018-05-11T21:24:01.773Z,101450.45
2018-05-11T21:26:48.390Z,101449.05
2018-05-11T21:29:31.400Z,101456.09
2018-05-11T21:32:20.970Z,101453.99
2018-05-11T21:34:59.500Z,101450.27
2018-05-11T21:37:43.115Z,101445.86
2018-05-11T21:40:29.566Z,101441.41
2018-05-11T21:43:20.103Z,101442.37
2018-05-11T21:45:55.623Z,101440.77
2018-05-11T21:48:54.209Z,101437.66
2018-05-11T21:51:42.574Z,101436.19
2018-05-11T21:54:21.743Z,101430.50
2018-05-11T21:57:07.359Z,101440.05
2018-05-11T22:02:46.191Z,101439.92
2018-05-11T22:08:50.947Z,101446.67
2018-05-11T22:17:11.004Z,101449.41
2018-05-11T22:19:46.349Z,101451.24
2018-05-11T22:25:14.270Z,101454.86
2018-05-11T22:27:55.802Z,101447.25
2018-05-11T22:30:42.749Z,101451.75
2018-05-11T22:33:14.245Z,101445.91
2018-05-11T22:35:49.207Z,101441.98
2018-05-11T22:38:32.894Z,101440.47
2018-05-11T22:41:05.534Z,101434.64
2018-05-11T22:43:41.888Z,101432.02
2018-05-11T22:46:26.772Z,101429.20
2018-05-11T22:49:02.414Z,101429.20
2018-05-11T22:51:39.270Z,101432.76
2018-05-11T22:54:19.932Z,101430.92
2018-05-11T22:57:04.733Z,101424.34
2018-05-11T22:59:47.370Z,101423.98
2018-05-11T23:05:21.795Z,101417.69
2018-05-11T23:10:42.581Z,101421.55
2018-05-11T23:13:26.135Z,101422.16
2018-05-11T23:16:10.286Z,101418.55
2018-05-11T23:18:43.143Z,101417.99
2018-05-11T23:21:22.941Z,101410.57
2018-05-11T23:24:00.613Z,101413.16
2018-05-11T23:26:30.939Z,101415.19
2018-05-11T23:29:14.276Z,101417.02
2018-05-11T23:31:44.715Z,101413.97
2018-05-11T23:34:15.514Z,101413.64
2018-05-11T23:36:53.259Z,101419.05
2018-05-11T23:39:34.097Z,101414.13
2018-05-11T23:42:07.056Z,101412.78
2018-05-11T23:47:39.173Z,101413.89
2018-05-11T23:50:18.976Z,101408.75
2018-05-11T23:53:00.811Z,101409.62
2018-05-11T23:55:47.757Z,101408.69
2018-05-11T23:58:32.098Z,101394.86
